Time;durP1;ratioP1;P1;durP2;ratioP2;P2;SDS_P1;SDS_P2;PMS_P1;PMS_P2;Temp;Humidity;BMP_temperature;BMP_pressure;BME280_temperature;BME280_humidity;BME280_pressure;Samples;Min_cycle;Max_cycle;Signal;HPM_P1;HPM_P2
2023/11/14 00:00:06;;;;;;;0.00;0.00;;;15.30;99.90;;;;;;5047446;28;20615;-74
2023/11/14 00:02:33;;;;;;;0.03;0.03;;;15.30;99.90;;;;;;5046772;28;20067;-74
2023/11/14 00:04:59;;;;;;;0.00;0.00;;;15.30;99.90;;;;;;5047963;28;20029;-75
2023/11/14 00:07:24;;;;;;;0.00;0.00;;;15.30;99.90;;;;;;5047116;28;20504;-75
2023/11/14 00:09:50;;;;;;;0.00;0.00;;;15.30;99.90;;;;;;5045009;28;20047;-74
2023/11/14 00:12:16;;;;;;;0.10;0.10;;;15.30;99.90;;;;;;5043742;28;20745;-74
2023/11/14 00:14:45;;;;;;;0.00;0.00;;;15.30;99.90;;;;;;5053457;28;20033;-74
2023/11/14 00:17:11;;;;;;;0.00;0.00;;;15.30;99.90;;;;;;5053134;28;20796;-74
2023/11/14 00:19:38;;;;;;;0.00;0.00;;;15.30;99.90;;;;;;5049004;28;20033;-75
2023/11/14 00:22:05;;;;;;;;;;;15.30;99.90;;;;;;5049182;28;20106;-75
2023/11/14 00:24:30;;;;;;;0.00;0.00;;;15.30;99.90;;;;;;5044581;28;20410;-74
2023/11/14 00:26:56;;;;;;;0.00;0.00;;;15.30;99.90;;;;;;5046154;28;20064;-74
2023/11/14 00:29:22;;;;;;;0.00;0.00;;;15.30;99.90;;;;;;5048603;28;20039;-75
2023/11/14 00:31:48;;;;;;;0.00;0.00;;;15.30;99.90;;;;;;5045729;28;20119;-74
2023/11/14 00:34:14;;;;;;;0.07;0.07;;;15.30;99.90;;;;;;5048521;28;20056;-74
2023/11/14 00:36:41;;;;;;;0.00;0.00;;;15.30;99.90;;;;;;5047464;28;20025;-75
2023/11/14 00:39:08;;;;;;;0.00;0.00;;;15.30;99.90;;;;;;5047880;28;20845;-75
2023/11/14 00:41:35;;;;;;;0.00;0.00;;;15.30;99.90;;;;;;5046860;28;20069;-75
2023/11/14 00:44:02;;;;;;;;;;;15.30;99.90;;;;;;5049768;28;20033;-74
2023/11/14 00:46:28;;;;;;;0.00;0.00;;;15.30;99.90;;;;;;5044285;28;19909;-75
2023/11/14 00:48:54;;;;;;;0.00;0.00;;;15.30;99.90;;;;;;5047753;28;20207;-75
2023/11/14 00:51:19;;;;;;;0.00;0.00;;;15.30;99.90;;;;;;5046322;28;20314;-75
2023/11/14 00:53:45;;;;;;;0.00;0.00;;;15.30;99.90;;;;;;5047047;28;20351;-75
2023/11/14 00:56:11;;;;;;;0.37;0.37;;;15.30;99.90;;;;;;5048376;28;20024;-75
2023/11/14 00:58:38;;;;;;;3.30;2.23;;;15.30;99.90;;;;;;5049576;28;20052;-75
2023/11/14 01:01:04;;;;;;;0.00;0.00;;;15.30;99.90;;;;;;5049892;28;20029;-75
2023/11/14 01:03:30;;;;;;;0.00;0.00;;;15.30;99.90;;;;;;5048194;28;20041;-75
2023/11/14 01:05:55;;;;;;;0.00;0.00;;;15.30;99.90;;;;;;5049418;28;20021;-75
2023/11/14 01:08:21;;;;;;;0.00;0.00;;;15.30;99.90;;;;;;5057823;28;20508;-75
2023/11/14 01:10:47;;;;;;;0.00;0.00;;;15.30;99.90;;;;;;5047453;28;20756;-75
2023/11/14 01:13:13;;;;;;;0.00;0.00;;;15.30;99.90;;;;;;5052252;28;20036;-75
2023/11/14 01:15:39;;;;;;;0.00;0.00;;;15.30;99.90;;;;;;5054258;28;20029;-75
2023/11/14 01:18:05;;;;;;;0.00;0.00;;;15.30;99.90;;;;;;5048211;28;20104;-75
2023/11/14 01:20:31;;;;;;;0.00;0.00;;;15.30;99.90;;;;;;5048250;28;20147;-74
2023/11/14 01:22:56;;;;;;;0.00;0.00;;;15.30;99.90;;;;;;5049677;28;20358;-75
2023/11/14 01:25:22;;;;;;;0.00;0.00;;;15.30;99.90;;;;;;5051392;28;20033;-75
2023/11/14 01:27:48;;;;;;;0.00;0.00;;;15.30;99.90;;;;;;5047762;28;20041;-75
2023/11/14 01:30:15;;;;;;;0.00;0.00;;;15.20;99.90;;;;;;5050072;28;20571;-75
2023/11/14 01:32:40;;;;;;;0.00;0.00;;;15.30;99.90;;;;;;5046880;28;20068;-75
2023/11/14 01:35:06;;;;;;;0.00;0.00;;;15.30;99.90;;;;;;5045163;28;20056;-75
2023/11/14 01:37:32;;;;;;;0.10;0.10;;;15.30;99.90;;;;;;5047698;28;20025;-74
2023/11/14 01:39:58;;;;;;;0.00;0.00;;;15.30;99.90;;;;;;5049684;28;20263;-74
2023/11/14 01:42:24;;;;;;;1.30;1.23;;;15.30;99.90;;;;;;5050870;28;20045;-75
2023/11/14 01:44:50;;;;;;;0.00;0.00;;;15.30;99.90;;;;;;5047215;28;20033;-75
2023/11/14 01:47:16;;;;;;;0.00;0.00;;;15.30;99.90;;;;;;5050859;28;20029;-75
2023/11/14 01:49:42;;;;;;;0.00;0.00;;;15.30;99.90;;;;;;5047072;28;20479;-75
2023/11/14 01:52:10;;;;;;;0.45;0.45;;;15.30;99.90;;;;;;5049474;28;20074;-74
2023/11/14 01:54:37;;;;;;;0.00;0.00;;;15.30;99.90;;;;;;5047051;28;20033;-74
2023/11/14 01:57:04;;;;;;;0.10;0.10;;;15.30;99.90;;;;;;5048432;28;20032;-74
2023/11/14 01:59:30;;;;;;;0.00;0.00;;;15.30;99.90;;;;;;5046957;28;20128;-75
2023/11/14 02:01:57;;;;;;;0.00;0.00;;;15.30;99.90;;;;;;5049069;28;20055;-75
2023/11/14 02:04:25;;;;;;;0.00;0.00;;;15.30;99.90;;;;;;5048063;28;20056;-75
2023/11/14 02:06:51;;;;;;;0.00;0.00;;;15.30;99.90;;;;;;5046229;28;20078;-75
2023/11/14 02:09:18;;;;;;;0.00;0.00;;;15.30;99.90;;;;;;5046465;28;20148;-75
2023/11/14 02:11:47;;;;;;;0.00;0.00;;;15.30;99.90;;;;;;5044652;28;20037;-75
2023/11/14 02:14:13;;;;;;;0.00;0.00;;;15.30;99.90;;;;;;5050072;28;20028;-75
2023/11/14 02:16:48;;;;;;;0.00;0.00;;;15.30;99.90;;;;;;5047253;28;20021;-74
2023/11/14 02:19:14;;;;;;;0.00;0.00;;;15.30;99.90;;;;;;5049594;28;20021;-74
2023/11/14 02:21:41;;;;;;;0.00;0.00;;;15.30;99.90;;;;;;5047385;28;20029;-75
2023/11/14 02:24:13;;;;;;;0.00;0.00;;;15.30;99.90;;;;;;5047727;28;20814;-75
2023/11/14 02:26:40;;;;;;;0.10;0.10;;;15.30;99.90;;;;;;5047739;28;20474;-75
2023/11/14 02:29:05;;;;;;;0.00;0.00;;;15.30;99.90;;;;;;5047101;28;20119;-75
2023/11/14 02:31:31;;;;;;;0.00;0.00;;;15.40;99.90;;;;;;5045466;28;20107;-75
2023/11/14 02:33:57;;;;;;;0.00;0.00;;;15.30;99.90;;;;;;5047304;28;20103;-74
2023/11/14 02:36:24;;;;;;;0.00;0.00;;;15.30;99.90;;;;;;5047447;28;20033;-75
2023/11/14 02:38:49;;;;;;;0.00;0.00;;;15.30;99.90;;;;;;5046092;28;20013;-75
2023/11/14 02:41:15;;;;;;;0.00;0.00;;;15.40;99.90;;;;;;5045373;28;20124;-74
2023/11/14 02:43:41;;;;;;;0.00;0.00;;;15.30;99.90;;;;;;5045680;28;20104;-74
2023/11/14 02:46:07;;;;;;;0.00;0.00;;;15.30;99.90;;;;;;5046721;28;20506;-74
2023/11/14 02:48:34;;;;;;;0.00;0.00;;;15.30;99.90;;;;;;5046890;28;20049;-74
2023/11/14 02:50:59;;;;;;;0.00;0.00;;;15.30;99.90;;;;;;5044864;28;20113;-73
2023/11/14 02:53:25;;;;;;;0.00;0.00;;;15.30;99.90;;;;;;5048451;28;20132;-74
2023/11/14 02:55:51;;;;;;;0.00;0.00;;;15.30;99.90;;;;;;5047130;28;20049;-75
2023/11/14 02:58:18;;;;;;;0.00;0.00;;;15.30;99.90;;;;;;5047168;28;20131;-75
2023/11/14 03:00:51;;;;;;;0.00;0.00;;;15.30;99.90;;;;;;5047365;28;20041;-75
2023/11/14 03:03:18;;;;;;;0.00;0.00;;;15.30;99.90;;;;;;5047600;28;20138;-75
2023/11/14 03:05:45;;;;;;;0.00;0.00;;;15.30;99.90;;;;;;5047039;28;20029;-74
2023/11/14 03:08:11;;;;;;;0.00;0.00;;;15.30;99.90;;;;;;5048921;28;20044;-74
2023/11/14 03:10:37;;;;;;;0.03;0.03;;;15.30;99.90;;;;;;5045307;28;20565;-75
2023/11/14 03:13:04;;;;;;;0.00;0.00;;;15.30;99.90;;;;;;5042238;28;20139;-74
2023/11/14 03:15:30;;;;;;;0.00;0.00;;;15.30;99.90;;;;;;5047200;28;20036;-75
2023/11/14 03:17:56;;;;;;;0.10;0.10;;;15.30;99.90;;;;;;5051052;28;20400;-74
2023/11/14 03:20:23;;;;;;;0.00;0.00;;;15.30;99.90;;;;;;5050123;28;20032;-75
2023/11/14 03:22:48;;;;;;;0.00;0.00;;;15.30;99.90;;;;;;5047936;28;20036;-75
2023/11/14 03:25:14;;;;;;;0.00;0.00;;;15.30;99.90;;;;;;5047247;28;20094;-76
2023/11/14 03:27:40;;;;;;;0.00;0.00;;;15.30;99.90;;;;;;5052419;28;20631;-75
2023/11/14 03:30:09;;;;;;;0.00;0.00;;;15.30;99.90;;;;;;5046235;28;20095;-74
2023/11/14 03:32:36;;;;;;;0.00;0.00;;;15.30;99.90;;;;;;5047342;28;20058;-75
2023/11/14 03:35:03;;;;;;;;;;;15.30;99.90;;;;;;5047846;28;20024;-74
2023/11/14 03:37:28;;;;;;;0.00;0.00;;;15.30;99.90;;;;;;5044813;28;19909;-74
2023/11/14 03:39:54;;;;;;;0.00;0.00;;;15.30;99.90;;;;;;5046492;28;20024;-74
2023/11/14 03:42:20;;;;;;;0.00;0.00;;;15.30;99.90;;;;;;5044687;28;20079;-74
2023/11/14 03:44:45;;;;;;;0.00;0.00;;;15.30;99.90;;;;;;5048254;28;20463;-74
2023/11/14 03:47:11;;;;;;;0.00;0.00;;;15.30;99.90;;;;;;5049127;28;20039;-75
2023/11/14 03:49:36;;;;;;;0.00;0.00;;;15.30;99.90;;;;;;5046680;28;20029;-74
2023/11/14 03:52:02;;;;;;;0.00;0.00;;;15.30;99.90;;;;;;5044615;28;20574;-75
2023/11/14 03:54:28;;;;;;;0.00;0.00;;;15.20;99.90;;;;;;5046328;28;20024;-75
2023/11/14 03:56:54;;;;;;;0.00;0.00;;;15.20;99.90;;;;;;5049298;28;20031;-75
2023/11/14 03:59:20;;;;;;;0.00;0.00;;;15.20;99.90;;;;;;5047691;28;20035;-73
2023/11/14 04:01:46;;;;;;;0.00;0.00;;;15.30;99.90;;;;;;5045346;28;20191;-74
2023/11/14 04:04:12;;;;;;;0.00;0.00;;;15.20;99.90;;;;;;5046148;28;20108;-75
2023/11/14 04:06:37;;;;;;;0.00;0.00;;;15.20;99.90;;;;;;5048899;28;20361;-75
2023/11/14 04:09:03;;;;;;;0.00;0.00;;;15.20;99.90;;;;;;5047963;28;20029;-75
2023/11/14 04:11:28;;;;;;;0.00;0.00;;;15.20;99.90;;;;;;5048583;28;20029;-75
2023/11/14 04:13:54;;;;;;;0.00;0.00;;;15.20;99.90;;;;;;5047211;28;20562;-74
2023/11/14 04:16:20;;;;;;;0.00;0.00;;;15.20;99.90;;;;;;5049218;28;20666;-74
2023/11/14 04:18:46;;;;;;;0.00;0.00;;;15.20;99.90;;;;;;5043596;28;20166;-75
2023/11/14 04:21:19;;;;;;;0.00;0.00;;;15.20;99.90;;;;;;5044335;28;20029;-75
2023/11/14 04:23:47;;;;;;;0.00;0.00;;;15.20;99.90;;;;;;5048660;28;20024;-75
2023/11/14 04:26:14;;;;;;;0.00;0.00;;;15.20;99.90;;;;;;5047875;28;20075;-75
2023/11/14 04:28:40;;;;;;;0.00;0.00;;;15.20;99.90;;;;;;5047861;28;20088;-75
2023/11/14 04:31:06;;;;;;;0.00;0.00;;;15.20;99.90;;;;;;5048541;28;20033;-75
2023/11/14 04:33:32;;;;;;;0.00;0.00;;;15.20;99.90;;;;;;5050856;28;20140;-75
2023/11/14 04:35:58;;;;;;;0.13;0.13;;;15.20;99.90;;;;;;5052317;28;20025;-75
2023/11/14 04:38:23;;;;;;;0.00;0.00;;;15.20;99.90;;;;;;5049007;28;20021;-75
2023/11/14 04:40:49;;;;;;;0.00;0.00;;;15.20;99.90;;;;;;5050269;28;20029;-75
2023/11/14 04:43:15;;;;;;;0.00;0.00;;;15.20;99.90;;;;;;5049526;28;20882;-74
2023/11/14 04:45:40;;;;;;;0.00;0.00;;;15.20;99.90;;;;;;5050527;28;20040;-75
2023/11/14 04:48:06;;;;;;;0.10;0.10;;;15.20;99.90;;;;;;5050630;28;20032;-75
2023/11/14 04:50:32;;;;;;;0.00;0.00;;;15.20;99.90;;;;;;5051255;28;20040;-75
2023/11/14 04:52:57;;;;;;;0.00;0.00;;;15.20;99.90;;;;;;5050397;28;20029;-75
2023/11/14 04:55:23;;;;;;;0.20;0.20;;;15.20;99.90;;;;;;5050248;28;20025;-75
2023/11/14 04:57:48;;;;;;;0.00;0.00;;;15.20;99.90;;;;;;5050596;28;20050;-75
2023/11/14 05:00:14;;;;;;;0.00;0.00;;;15.20;99.90;;;;;;5049731;28;20032;-75
2023/11/14 05:02:40;;;;;;;0.00;0.00;;;15.20;99.90;;;;;;5050875;28;20427;-76
2023/11/14 05:05:06;;;;;;;0.00;0.00;;;15.20;99.90;;;;;;5050559;28;20025;-75
2023/11/14 05:07:31;;;;;;;0.00;0.00;;;15.20;99.90;;;;;;5049556;28;20036;-75
2023/11/14 05:09:59;;;;;;;0.00;0.00;;;15.20;99.90;;;;;;5050132;28;20032;-75
2023/11/14 05:12:25;;;;;;;0.00;0.00;;;15.20;99.90;;;;;;5047105;28;20032;-74
2023/11/14 05:14:51;;;;;;;0.00;0.00;;;15.20;99.90;;;;;;5047759;28;20017;-75
2023/11/14 05:17:16;;;;;;;0.03;0.03;;;15.20;99.90;;;;;;5047944;28;20032;-75
2023/11/14 05:19:42;;;;;;;0.00;0.00;;;15.30;99.90;;;;;;5049558;28;20032;-74
2023/11/14 05:22:08;;;;;;;0.00;0.00;;;15.30;99.90;;;;;;5050155;28;20029;-75
2023/11/14 05:24:33;;;;;;;0.00;0.00;;;15.30;99.90;;;;;;5046227;28;20053;-75
2023/11/14 05:26:59;;;;;;;0.00;0.00;;;15.30;99.90;;;;;;5048195;28;20024;-74
2023/11/14 05:29:25;;;;;;;0.00;0.00;;;15.30;99.90;;;;;;5049329;28;20048;-74
2023/11/14 05:31:50;;;;;;;0.00;0.00;;;15.30;99.90;;;;;;5048511;28;20024;-74
2023/11/14 05:34:16;;;;;;;0.00;0.00;;;15.30;99.90;;;;;;5049639;28;20478;-74
2023/11/14 05:36:42;;;;;;;0.00;0.00;;;15.30;99.90;;;;;;5047946;28;20021;-76
2023/11/14 05:39:07;;;;;;;0.00;0.00;;;15.30;99.90;;;;;;5047743;28;20037;-74
2023/11/14 05:41:36;;;;;;;0.00;0.00;;;15.30;99.90;;;;;;5054964;28;20048;-74
2023/11/14 05:44:02;;;;;;;0.00;0.00;;;15.30;99.90;;;;;;5051067;28;20456;-74
2023/11/14 05:46:28;;;;;;;0.00;0.00;;;15.30;99.90;;;;;;5055341;28;20037;-75
2023/11/14 05:48:54;;;;;;;0.00;0.00;;;15.30;99.90;;;;;;5048180;28;20035;-76
2023/11/14 05:51:20;;;;;;;0.40;0.40;;;15.30;99.90;;;;;;5058125;28;20063;-75
2023/11/14 05:53:46;;;;;;;0.00;0.00;;;15.30;99.90;;;;;;5050182;28;20013;-76
2023/11/14 05:56:12;;;;;;;0.10;0.10;;;15.30;99.90;;;;;;5047363;28;20055;-76
2023/11/14 05:58:37;;;;;;;0.00;0.00;;;15.30;99.90;;;;;;5046538;28;20022;-77
2023/11/14 06:01:03;;;;;;;0.00;0.00;;;15.30;99.90;;;;;;5049129;28;20135;-77
2023/11/14 06:03:29;;;;;;;0.00;0.00;;;15.20;99.90;;;;;;5046417;28;20516;-76
2023/11/14 06:05:55;;;;;;;0.00;0.00;;;15.20;99.90;;;;;;5046836;28;20018;-77
2023/11/14 06:08:20;;;;;;;0.00;0.00;;;15.20;99.90;;;;;;5049854;28;20113;-79
2023/11/14 06:10:46;;;;;;;0.00;0.00;;;15.20;99.90;;;;;;5037316;28;20041;-77
2023/11/14 06:13:11;;;;;;;0.10;0.10;;;15.20;99.90;;;;;;5046166;28;20560;-76
2023/11/14 06:15:38;;;;;;;0.00;0.00;;;15.20;99.90;;;;;;5044508;28;20685;-77
2023/11/14 06:18:04;;;;;;;0.00;0.00;;;15.20;99.90;;;;;;5048469;28;20021;-77
2023/11/14 06:20:29;;;;;;;0.00;0.00;;;15.20;99.90;;;;;;5048667;28;20405;-77
2023/11/14 06:22:55;;;;;;;0.00;0.00;;;15.20;99.90;;;;;;5045994;28;20029;-77
2023/11/14 06:25:21;;;;;;;0.20;0.20;;;15.20;99.90;;;;;;5049199;28;20044;-76
2023/11/14 06:27:47;;;;;;;0.10;0.10;;;15.20;99.90;;;;;;5045689;28;20036;-77
2023/11/14 06:30:13;;;;;;;0.23;0.23;;;15.20;99.90;;;;;;5045154;28;20029;-77
2023/11/14 06:32:39;;;;;;;0.00;0.00;;;15.20;99.90;;;;;;5045543;28;20215;-77
2023/11/14 06:35:05;;;;;;;0.00;0.00;;;15.20;99.90;;;;;;5049132;28;20064;-77
2023/11/14 06:37:31;;;;;;;0.28;0.28;;;15.20;99.90;;;;;;5039795;28;20044;-76
2023/11/14 06:39:57;;;;;;;1.00;0.97;;;15.20;99.90;;;;;;5045804;28;20133;-76
2023/11/14 06:42:23;;;;;;;0.00;0.00;;;15.20;99.90;;;;;;5047441;28;20052;-76
2023/11/14 06:44:49;;;;;;;0.00;0.00;;;15.20;99.90;;;;;;5041500;28;20028;-78
2023/11/14 06:47:15;;;;;;;0.00;0.00;;;15.20;99.90;;;;;;5046910;28;20106;-78
2023/11/14 06:49:42;;;;;;;0.00;0.00;;;15.20;99.90;;;;;;5045708;28;20288;-75
2023/11/14 06:52:08;;;;;;;0.00;0.00;;;15.20;99.90;;;;;;5037618;28;20731;-77
2023/11/14 06:54:34;;;;;;;0.27;0.27;;;15.20;99.90;;;;;;5046080;28;20114;-77
2023/11/14 06:57:00;;;;;;;0.67;0.67;;;15.20;99.90;;;;;;5047419;28;20025;-77
2023/11/14 06:59:29;;;;;;;0.17;0.17;;;15.20;99.90;;;;;;5046766;28;20033;-77
2023/11/14 07:01:55;;;;;;;0.52;0.52;;;15.20;99.90;;;;;;5034806;28;20049;-77
2023/11/14 07:04:21;;;;;;;0.03;0.03;;;15.30;99.90;;;;;;5040723;28;20052;-76
2023/11/14 07:06:46;;;;;;;0.00;0.00;;;15.20;99.90;;;;;;5052952;28;20052;-76
2023/11/14 07:09:15;;;;;;;0.00;0.00;;;15.20;99.90;;;;;;5046765;28;20030;-77
2023/11/14 07:11:41;;;;;;;0.00;0.00;;;15.20;99.90;;;;;;5037993;28;20036;-77
2023/11/14 07:14:07;;;;;;;0.00;0.00;;;15.20;99.90;;;;;;5047795;28;20476;-77
2023/11/14 07:16:33;;;;;;;1.00;1.00;;;15.20;99.90;;;;;;5044701;28;20030;-76
2023/11/14 07:18:59;;;;;;;0.00;0.00;;;15.20;99.90;;;;;;5039549;28;20124;-76
2023/11/14 07:21:25;;;;;;;0.10;0.10;;;15.20;99.90;;;;;;5047710;28;20089;-76
2023/11/14 07:23:50;;;;;;;0.10;0.10;;;15.20;99.90;;;;;;5037949;28;20590;-77
2023/11/14 07:26:16;;;;;;;0.00;0.00;;;15.20;99.90;;;;;;5045661;28;20029;-77
2023/11/14 07:28:42;;;;;;;0.00;0.00;;;15.20;99.90;;;;;;5041629;28;20025;-77
2023/11/14 07:31:08;;;;;;;0.00;0.00;;;15.30;99.90;;;;;;5046094;28;20124;-76
2023/11/14 07:33:34;;;;;;;0.77;0.77;;;15.30;99.90;;;;;;5045394;28;20210;-77
2023/11/14 07:35:59;;;;;;;0.00;0.00;;;15.40;99.90;;;;;;5035068;28;20098;-77
2023/11/14 07:38:25;;;;;;;0.00;0.00;;;15.40;99.90;;;;;;5047069;28;20025;-77
2023/11/14 07:40:52;;;;;;;0.10;0.10;;;15.50;99.90;;;;;;5046719;28;20385;-77
2023/11/14 07:43:23;;;;;;;0.05;0.05;;;15.50;99.90;;;;;;5036236;28;20106;-78
2023/11/14 07:45:49;;;;;;;0.20;0.20;;;15.50;99.90;;;;;;5047207;28;20035;-77
2023/11/14 07:48:16;;;;;;;0.00;0.00;;;15.50;99.90;;;;;;5047662;28;20029;-77
2023/11/14 07:50:42;;;;;;;0.00;0.00;;;15.50;99.90;;;;;;5047719;28;20091;-77
2023/11/14 07:53:09;;;;;;;0.00;0.00;;;15.60;99.90;;;;;;5046057;28;20052;-77
2023/11/14 07:55:35;;;;;;;0.00;0.00;;;15.60;99.90;;;;;;5038387;28;20021;-77
2023/11/14 07:58:00;;;;;;;0.67;0.67;;;15.70;99.90;;;;;;5044696;28;20109;-78
2023/11/14 08:00:26;;;;;;;0.00;0.00;;;15.70;99.90;;;;;;5034637;28;20460;-78
2023/11/14 08:02:52;;;;;;;0.00;0.00;;;15.80;99.90;;;;;;5046377;28;20116;-77
2023/11/14 08:05:17;;;;;;;0.00;0.00;;;15.70;99.90;;;;;;5039095;28;20511;-78
2023/11/14 08:07:43;;;;;;;0.00;0.00;;;15.70;99.90;;;;;;5047831;28;20033;-77
2023/11/14 08:10:09;;;;;;;0.00;0.00;;;15.60;99.90;;;;;;5040073;28;20568;-77
2023/11/14 08:12:36;;;;;;;0.00;0.00;;;15.60;99.90;;;;;;5043872;28;20024;-77
2023/11/14 08:15:02;;;;;;;0.00;0.00;;;15.50;99.90;;;;;;5047420;28;20025;-78
2023/11/14 08:17:28;;;;;;;0.00;0.00;;;15.50;99.90;;;;;;5048967;28;20029;-77
2023/11/14 08:19:54;;;;;;;0.00;0.00;;;15.60;99.90;;;;;;5048910;28;20029;-78
2023/11/14 08:22:19;;;;;;;0.00;0.00;;;15.60;99.90;;;;;;5048549;28;20033;-77
2023/11/14 08:24:45;;;;;;;5.17;3.63;;;15.60;99.90;;;;;;5049015;28;20059;-78
2023/11/14 08:27:11;;;;;;;0.00;0.00;;;15.60;99.90;;;;;;5046906;28;20032;-77
2023/11/14 08:29:38;;;;;;;0.20;0.20;;;15.60;99.90;;;;;;5048941;28;20025;-77
2023/11/14 08:32:05;;;;;;;0.00;0.00;;;15.70;99.90;;;;;;5046794;28;20052;-77
2023/11/14 08:34:30;;;;;;;0.80;0.80;;;15.70;99.90;;;;;;5038885;28;20033;-77
2023/11/14 08:36:56;;;;;;;0.00;0.00;;;15.70;99.90;;;;;;5046987;28;20025;-77
2023/11/14 08:39:22;;;;;;;0.00;0.00;;;15.70;99.90;;;;;;5041527;28;20723;-77
2023/11/14 08:41:47;;;;;;;0.00;0.00;;;15.80;99.90;;;;;;5047110;28;20128;-77
2023/11/14 08:44:13;;;;;;;0.00;0.00;;;15.80;99.90;;;;;;5045459;28;20108;-77
2023/11/14 08:46:39;;;;;;;0.00;0.00;;;15.80;99.90;;;;;;5054352;28;20840;-77
2023/11/14 08:49:07;;;;;;;0.00;0.00;;;16.00;99.90;;;;;;5052512;28;20029;-78
2023/11/14 08:51:34;;;;;;;0.03;0.03;;;16.20;99.90;;;;;;5046510;28;20028;-78
2023/11/14 08:53:59;;;;;;;0.30;0.30;;;16.50;99.90;;;;;;5046643;28;20549;-77
2023/11/14 08:56:26;;;;;;;0.67;0.33;;;16.40;99.90;;;;;;5046476;28;20104;-78
2023/11/14 08:58:52;;;;;;;0.00;0.00;;;16.30;99.90;;;;;;5051247;28;20507;-77
2023/11/14 09:01:18;;;;;;;0.00;0.00;;;16.40;99.90;;;;;;5046523;28;20080;-77
2023/11/14 09:03:44;;;;;;;0.00;0.00;;;16.50;99.90;;;;;;5045054;28;20025;-77
2023/11/14 09:06:10;;;;;;;0.00;0.00;;;16.80;99.90;;;;;;5046697;28;20020;-78
2023/11/14 09:08:37;;;;;;;0.00;0.00;;;16.80;99.90;;;;;;5049500;28;20037;-78
2023/11/14 09:11:04;;;;;;;;;;;16.80;99.90;;;;;;5048347;28;20605;-78
2023/11/14 09:13:30;;;;;;;0.00;0.00;;;17.00;99.90;;;;;;5046665;28;19909;-77
2023/11/14 09:15:56;;;;;;;0.40;0.40;;;17.10;99.90;;;;;;5046378;28;20021;-78
2023/11/14 09:18:23;;;;;;;0.00;0.00;;;17.20;99.90;;;;;;5050570;28;20032;-78
2023/11/14 09:20:49;;;;;;;0.00;0.00;;;17.20;99.90;;;;;;5049771;28;20276;-78
2023/11/14 09:23:15;;;;;;;0.00;0.00;;;17.00;99.90;;;;;;5054194;28;20107;-78
2023/11/14 09:25:41;;;;;;;0.23;0.23;;;17.00;99.90;;;;;;5053599;28;20025;-78
2023/11/14 09:28:07;;;;;;;2.33;2.13;;;17.00;99.90;;;;;;5049840;28;20029;-78
2023/11/14 09:30:34;;;;;;;0.00;0.00;;;17.00;99.90;;;;;;5050466;28;20056;-78
2023/11/14 09:33:00;;;;;;;0.00;0.00;;;17.00;99.90;;;;;;5049678;28;20509;-77
2023/11/14 09:35:26;;;;;;;0.00;0.00;;;17.00;99.90;;;;;;5049387;28;20021;-78
2023/11/14 09:37:52;;;;;;;0.00;0.00;;;17.10;99.90;;;;;;5044763;28;20519;-78
2023/11/14 09:40:22;;;;;;;0.00;0.00;;;17.20;99.90;;;;;;5050107;28;20021;-78
2023/11/14 09:42:49;;;;;;;0.00;0.00;;;17.20;99.90;;;;;;5048046;28;20057;-77
2023/11/14 09:45:18;;;;;;;0.00;0.00;;;17.40;99.90;;;;;;5057484;28;20023;-77
2023/11/14 09:47:44;;;;;;;0.00;0.00;;;17.50;99.90;;;;;;5057109;28;20024;-78
2023/11/14 09:50:11;;;;;;;0.00;0.00;;;17.80;99.90;;;;;;5047885;28;20055;-78
2023/11/14 09:52:37;;;;;;;0.00;0.00;;;18.10;99.90;;;;;;5048419;28;20028;-77
2023/11/14 09:55:05;;;;;;;0.32;0.20;;;18.10;99.90;;;;;;5049701;28;20541;-77
2023/11/14 09:57:33;;;;;;;0.00;0.00;;;18.00;99.90;;;;;;5054750;28;20029;-78
2023/11/14 09:59:59;;;;;;;0.00;0.00;;;18.00;99.90;;;;;;5050231;28;20294;-78
2023/11/14 10:02:26;;;;;;;0.00;0.00;;;18.00;99.90;;;;;;5049639;28;20021;-78
2023/11/14 10:04:51;;;;;;;0.00;0.00;;;18.40;99.90;;;;;;5056503;28;20029;-78
2023/11/14 10:07:20;;;;;;;0.00;0.00;;;18.10;99.90;;;;;;5052766;28;20035;-78
2023/11/14 10:09:47;;;;;;;0.00;0.00;;;17.70;99.90;;;;;;5049404;28;20025;-77
2023/11/14 10:12:33;;;;;;;0.00;0.00;;;17.30;99.90;;;;;;5048505;28;20033;-78
2023/11/14 10:14:59;;;;;;;0.00;0.00;;;17.20;99.90;;;;;;5039941;28;20238;-78
2023/11/14 10:17:29;;;;;;;0.20;0.20;;;16.90;99.90;;;;;;5051476;28;20116;-78
2023/11/14 10:20:01;;;;;;;0.00;0.00;;;16.80;99.90;;;;;;5048842;28;20040;-78
2023/11/14 10:22:27;;;;;;;0.00;0.00;;;16.80;99.90;;;;;;5048518;28;20522;-78
2023/11/14 10:24:53;;;;;;;0.00;0.00;;;16.80;99.90;;;;;;5049018;28;20532;-78
2023/11/14 10:27:27;;;;;;;0.00;0.00;;;17.00;99.90;;;;;;5056049;28;20038;-78
2023/11/14 10:29:56;;;;;;;0.00;0.00;;;17.10;99.90;;;;;;5041816;28;20063;-77
2023/11/14 10:32:25;;;;;;;0.00;0.00;;;17.30;99.90;;;;;;5052522;28;20465;-78
2023/11/14 10:34:51;;;;;;;0.17;0.13;;;17.70;99.90;;;;;;5057435;28;20024;-78
2023/11/14 10:37:30;;;;;;;;;;;17.90;99.90;;;;;;5056737;28;20025;-78
2023/11/14 10:39:56;;;;;;;0.10;0.10;;;17.70;99.90;;;;;;5045903;28;19939;-78
2023/11/14 10:42:23;;;;;;;0.00;0.00;;;17.60;99.90;;;;;;5055670;28;20152;-78
2023/11/14 10:45:01;;;;;;;;;;;17.60;99.90;;;;;;5048269;28;20037;-78
2023/11/14 10:47:41;;;;;;;0.00;0.00;;;17.60;99.90;;;;;;5040847;28;19904;-78
2023/11/14 10:50:26;;;;;;;0.00;0.00;;;17.60;99.90;;;;;;5048066;28;20028;-79
2023/11/14 10:52:54;;;;;;;0.00;0.00;;;17.50;99.90;;;;;;5048464;28;20713;-78
2023/11/14 10:55:21;;;;;;;0.10;0.10;;;17.50;99.90;;;;;;5047864;28;20029;-78
2023/11/14 10:57:52;;;;;;;0.15;0.15;;;17.60;99.90;;;;;;5048227;28;20552;-78
2023/11/14 11:00:21;;;;;;;0.00;0.00;;;17.70;99.90;;;;;;5048144;28;20547;-78
2023/11/14 11:02:51;;;;;;;0.00;0.00;;;17.80;99.90;;;;;;5048441;28;20060;-78
2023/11/14 11:05:20;;;;;;;0.00;0.00;;;17.90;99.90;;;;;;5053729;28;20112;-78
2023/11/14 11:07:46;;;;;;;0.00;0.00;;;18.00;99.90;;;;;;5053366;28;20085;-78
2023/11/14 11:10:12;;;;;;;0.00;0.00;;;18.10;99.90;;;;;;5053152;28;20025;-78
2023/11/14 11:12:40;;;;;;;0.00;0.00;;;17.90;99.90;;;;;;5045579;28;20031;-78
2023/11/14 11:15:09;;;;;;;0.00;0.00;;;17.70;99.90;;;;;;5048096;28;20013;-78
2023/11/14 11:17:42;;;;;;;0.00;0.00;;;17.70;99.90;;;;;;5048332;28;20079;-78
2023/11/14 11:20:10;;;;;;;0.00;0.00;;;17.60;99.90;;;;;;5050869;28;20555;-78
2023/11/14 11:23:02;;;;;;;0.05;0.05;;;17.40;99.90;;;;;;5050423;28;20053;-78
2023/11/14 11:25:29;;;;;;;0.00;0.00;;;17.40;99.90;;;;;;5048059;28;20023;-78
2023/11/14 11:27:55;;;;;;;0.00;0.00;;;17.40;99.90;;;;;;5051050;28;20192;-78
2023/11/14 11:30:21;;;;;;;0.00;0.00;;;17.60;99.90;;;;;;5050267;28;20029;-78
2023/11/14 11:32:53;;;;;;;0.63;0.27;;;17.80;99.90;;;;;;5047991;28;20033;-78
2023/11/14 11:35:19;;;;;;;0.10;0.10;;;18.00;99.90;;;;;;5047958;28;20024;-79
2023/11/14 11:38:09;;;;;;;0.00;0.00;;;18.10;99.90;;;;;;5047600;28;20021;-78
2023/11/14 11:40:36;;;;;;;0.00;0.00;;;18.10;99.90;;;;;;5052910;28;20086;-78
2023/11/14 11:43:10;;;;;;;0.00;0.00;;;18.10;99.90;;;;;;5046024;28;20775;-78
2023/11/14 11:45:40;;;;;;;0.00;0.00;;;17.80;99.90;;;;;;5047212;28;20037;-78
2023/11/14 11:48:24;;;;;;;0.10;0.10;;;17.70;99.90;;;;;;5047381;28;20028;-78
2023/11/14 11:50:51;;;;;;;0.00;0.00;;;17.70;99.90;;;;;;5040879;28;20215;-79
2023/11/14 11:53:39;;;;;;;0.00;0.00;;;17.70;99.90;;;;;;5045860;28;20029;-78
2023/11/14 11:56:05;;;;;;;0.00;0.00;;;17.70;99.90;;;;;;5045779;28;20033;-78
2023/11/14 11:58:45;;;;;;;;;;;17.60;99.90;;;;;;5047457;28;20025;-79
2023/11/14 12:01:11;;;;;;;0.00;0.00;;;17.60;99.90;;;;;;5046912;28;19908;-78
2023/11/14 12:03:36;;;;;;;0.00;0.00;;;17.60;99.90;;;;;;5051113;28;20024;-78
2023/11/14 12:06:04;;;;;;;0.00;0.00;;;17.50;99.90;;;;;;5051113;28;20035;-79
2023/11/14 12:08:29;;;;;;;0.00;0.00;;;17.60;99.90;;;;;;5050936;28;20028;-78
2023/11/14 12:10:56;;;;;;;0.10;0.10;;;17.90;99.90;;;;;;5044308;28;20025;-78
2023/11/14 12:13:21;;;;;;;0.00;0.00;;;18.10;99.90;;;;;;5041532;28;20036;-78
2023/11/14 12:15:47;;;;;;;0.00;0.00;;;18.00;99.90;;;;;;5049544;28;20033;-78
2023/11/14 12:18:13;;;;;;;0.00;0.00;;;17.80;99.90;;;;;;5048181;28;20582;-79
2023/11/14 12:20:38;;;;;;;0.00;0.00;;;17.70;99.90;;;;;;5047064;28;20072;-78
2023/11/14 12:23:04;;;;;;;0.00;0.00;;;17.80;99.90;;;;;;5049025;28;20048;-78
2023/11/14 12:25:31;;;;;;;0.00;0.00;;;17.90;99.90;;;;;;5048612;28;20531;-78
2023/11/14 12:27:58;;;;;;;0.00;0.00;;;17.90;99.90;;;;;;5038613;28;20044;-78
2023/11/14 12:30:24;;;;;;;0.00;0.00;;;17.90;99.90;;;;;;5046580;28;20033;-78
2023/11/14 12:33:10;;;;;;;0.00;0.00;;;17.80;99.90;;;;;;5048968;28;20064;-78
2023/11/14 12:35:57;;;;;;;0.00;0.00;;;17.80;99.90;;;;;;5056273;28;20072;-79
2023/11/14 12:38:37;;;;;;;0.00;0.00;;;17.70;99.90;;;;;;5040828;28;20556;-79
2023/11/14 12:41:26;;;;;;;0.00;0.00;;;17.60;99.90;;;;;;5049043;28;20044;-78
2023/11/14 12:43:57;;;;;;;0.00;0.00;;;17.50;99.90;;;;;;5045629;28;20068;-78
2023/11/14 12:46:25;;;;;;;0.00;0.00;;;17.40;99.90;;;;;;5044758;28;20103;-79